sensor_id;sensor_type;location;lat;lon;timestamp;P1;durP1;ratioP1;P2;durP2;ratioP2
42260;SDS011;27926;48.062;7.474;2023-04-25T00:00:11;12.23;;;3.40;;
42260;SDS011;27926;48.062;7.474;2023-04-25T00:02:35;5.18;;;2.25;;
42260;SDS011;27926;48.062;7.474;2023-04-25T00:05:01;10.18;;;2.58;;
42260;SDS011;27926;48.062;7.474;2023-04-25T00:07:27;6.93;;;3.05;;
42260;SDS011;27926;48.062;7.474;2023-04-25T00:09:55;8.30;;;2.78;;
42260;SDS011;27926;48.062;7.474;2023-04-25T00:12:19;7.30;;;2.42;;
42260;SDS011;27926;48.062;7.474;2023-04-25T00:14:45;8.45;;;2.45;;
42260;SDS011;27926;48.062;7.474;2023-04-25T00:17:10;13.00;;;2.63;;
42260;SDS011;27926;48.062;7.474;2023-04-25T00:19:35;7.28;;;2.00;;
42260;SDS011;27926;48.062;7.474;2023-04-25T00:22:01;12.60;;;2.70;;
42260;SDS011;27926;48.062;7.474;2023-04-25T00:24:26;7.18;;;2.40;;
42260;SDS011;27926;48.062;7.474;2023-04-25T00:26:51;5.00;;;2.13;;
42260;SDS011;27926;48.062;7.474;2023-04-25T00:29:15;5.65;;;2.50;;
42260;SDS011;27926;48.062;7.474;2023-04-25T00:31:40;7.22;;;3.03;;
42260;SDS011;27926;48.062;7.474;2023-04-25T00:34:05;7.85;;;2.60;;
42260;SDS011;27926;48.062;7.474;2023-04-25T00:36:31;8.15;;;2.58;;
42260;SDS011;27926;48.062;7.474;2023-04-25T00:38:55;6.32;;;2.45;;
42260;SDS011;27926;48.062;7.474;2023-04-25T00:41:20;7.47;;;2.13;;
42260;SDS011;27926;48.062;7.474;2023-04-25T00:43:44;10.13;;;2.08;;
42260;SDS011;27926;48.062;7.474;2023-04-25T00:46:11;10.18;;;2.50;;
42260;SDS011;27926;48.062;7.474;2023-04-25T00:48:36;4.60;;;1.98;;
42260;SDS011;27926;48.062;7.474;2023-04-25T00:51:00;11.68;;;2.53;;
42260;SDS011;27926;48.062;7.474;2023-04-25T00:53:26;7.13;;;1.87;;
42260;SDS011;27926;48.062;7.474;2023-04-25T00:55:52;3.50;;;1.73;;
42260;SDS011;27926;48.062;7.474;2023-04-25T00:58:17;6.25;;;2.08;;
42260;SDS011;27926;48.062;7.474;2023-04-25T01:00:43;2.60;;;1.67;;
42260;SDS011;27926;48.062;7.474;2023-04-25T01:03:09;7.10;;;1.95;;
42260;SDS011;27926;48.062;7.474;2023-04-25T01:05:34;7.32;;;2.60;;
42260;SDS011;27926;48.062;7.474;2023-04-25T01:07:58;9.88;;;2.15;;
42260;SDS011;27926;48.062;7.474;2023-04-25T01:10:23;4.60;;;2.00;;
42260;SDS011;27926;48.062;7.474;2023-04-25T01:12:48;4.82;;;1.67;;
42260;SDS011;27926;48.062;7.474;2023-04-25T01:15:13;5.70;;;2.33;;
42260;SDS011;27926;48.062;7.474;2023-04-25T01:17:37;11.20;;;2.08;;
42260;SDS011;27926;48.062;7.474;2023-04-25T01:20:03;5.07;;;2.20;;
42260;SDS011;27926;48.062;7.474;2023-04-25T01:22:29;9.25;;;2.42;;
42260;SDS011;27926;48.062;7.474;2023-04-25T01:24:53;5.22;;;2.15;;
42260;SDS011;27926;48.062;7.474;2023-04-25T01:27:18;6.72;;;1.80;;
42260;SDS011;27926;48.062;7.474;2023-04-25T01:29:44;4.65;;;2.05;;
42260;SDS011;27926;48.062;7.474;2023-04-25T01:32:09;3.95;;;1.80;;
42260;SDS011;27926;48.062;7.474;2023-04-25T01:34:34;11.70;;;2.15;;
42260;SDS011;27926;48.062;7.474;2023-04-25T01:36:59;10.43;;;3.60;;
42260;SDS011;27926;48.062;7.474;2023-04-25T01:39:25;8.55;;;2.42;;
42260;SDS011;27926;48.062;7.474;2023-04-25T01:41:50;7.30;;;2.55;;
42260;SDS011;27926;48.062;7.474;2023-04-25T01:44:15;7.75;;;2.03;;
42260;SDS011;27926;48.062;7.474;2023-04-25T01:46:41;5.50;;;2.35;;
42260;SDS011;27926;48.062;7.474;2023-04-25T01:49:06;14.82;;;2.53;;
42260;SDS011;27926;48.062;7.474;2023-04-25T01:51:31;6.35;;;1.77;;
42260;SDS011;27926;48.062;7.474;2023-04-25T01:53:56;8.10;;;1.88;;
42260;SDS011;27926;48.062;7.474;2023-04-25T01:56:21;3.60;;;2.03;;
42260;SDS011;27926;48.062;7.474;2023-04-25T01:58:45;7.38;;;2.47;;
42260;SDS011;27926;48.062;7.474;2023-04-25T02:01:10;3.88;;;1.98;;
42260;SDS011;27926;48.062;7.474;2023-04-25T02:03:35;11.20;;;2.83;;
42260;SDS011;27926;48.062;7.474;2023-04-25T02:06:00;2.45;;;1.73;;
42260;SDS011;27926;48.062;7.474;2023-04-25T02:08:25;8.43;;;2.83;;
42260;SDS011;27926;48.062;7.474;2023-04-25T02:10:50;11.23;;;2.70;;
42260;SDS011;27926;48.062;7.474;2023-04-25T02:13:15;8.43;;;3.00;;
42260;SDS011;27926;48.062;7.474;2023-04-25T02:15:39;8.77;;;2.40;;
42260;SDS011;27926;48.062;7.474;2023-04-25T02:18:05;12.10;;;3.67;;
42260;SDS011;27926;48.062;7.474;2023-04-25T02:20:30;7.87;;;2.70;;
42260;SDS011;27926;48.062;7.474;2023-04-25T02:22:55;8.13;;;2.88;;
42260;SDS011;27926;48.062;7.474;2023-04-25T02:25:20;9.77;;;2.83;;
42260;SDS011;27926;48.062;7.474;2023-04-25T02:27:45;6.00;;;2.90;;
42260;SDS011;27926;48.062;7.474;2023-04-25T02:30:10;11.27;;;3.93;;
42260;SDS011;27926;48.062;7.474;2023-04-25T02:32:35;10.30;;;2.75;;
42260;SDS011;27926;48.062;7.474;2023-04-25T02:35:02;10.65;;;3.67;;
42260;SDS011;27926;48.062;7.474;2023-04-25T02:37:27;10.80;;;3.55;;
42260;SDS011;27926;48.062;7.474;2023-04-25T02:39:52;12.07;;;2.78;;
42260;SDS011;27926;48.062;7.474;2023-04-25T02:42:17;13.30;;;3.67;;
42260;SDS011;27926;48.062;7.474;2023-04-25T02:44:41;4.38;;;2.33;;
42260;SDS011;27926;48.062;7.474;2023-04-25T02:47:06;9.50;;;3.75;;
42260;SDS011;27926;48.062;7.474;2023-04-25T02:49:30;8.05;;;2.95;;
42260;SDS011;27926;48.062;7.474;2023-04-25T02:51:55;15.73;;;3.20;;
42260;SDS011;27926;48.062;7.474;2023-04-25T02:54:20;12.30;;;3.47;;
42260;SDS011;27926;48.062;7.474;2023-04-25T02:56:44;17.73;;;4.20;;
42260;SDS011;27926;48.062;7.474;2023-04-25T02:59:09;7.97;;;2.33;;
42260;SDS011;27926;48.062;7.474;2023-04-25T03:01:33;14.00;;;3.55;;
42260;SDS011;27926;48.062;7.474;2023-04-25T03:03:58;11.70;;;3.60;;
42260;SDS011;27926;48.062;7.474;2023-04-25T03:06:22;12.77;;;6.10;;
42260;SDS011;27926;48.062;7.474;2023-04-25T03:08:47;11.95;;;3.45;;
42260;SDS011;27926;48.062;7.474;2023-04-25T03:11:12;15.05;;;3.60;;
42260;SDS011;27926;48.062;7.474;2023-04-25T03:13:36;6.00;;;2.78;;
42260;SDS011;27926;48.062;7.474;2023-04-25T03:16:01;9.27;;;3.70;;
42260;SDS011;27926;48.062;7.474;2023-04-25T03:18:25;10.98;;;3.20;;
42260;SDS011;27926;48.062;7.474;2023-04-25T03:20:50;15.25;;;3.75;;
42260;SDS011;27926;48.062;7.474;2023-04-25T03:23:15;21.85;;;3.53;;
42260;SDS011;27926;48.062;7.474;2023-04-25T03:25:39;22.42;;;3.63;;
42260;SDS011;27926;48.062;7.474;2023-04-25T03:28:04;10.82;;;3.83;;
42260;SDS011;27926;48.062;7.474;2023-04-25T03:30:29;12.25;;;3.13;;
42260;SDS011;27926;48.062;7.474;2023-04-25T03:32:53;15.52;;;4.10;;
42260;SDS011;27926;48.062;7.474;2023-04-25T03:35:18;14.32;;;3.85;;
42260;SDS011;27926;48.062;7.474;2023-04-25T03:37:42;13.27;;;3.50;;
42260;SDS011;27926;48.062;7.474;2023-04-25T03:40:10;12.13;;;3.50;;
42260;SDS011;27926;48.062;7.474;2023-04-25T03:42:35;16.90;;;4.25;;
42260;SDS011;27926;48.062;7.474;2023-04-25T03:44:59;11.45;;;3.78;;
42260;SDS011;27926;48.062;7.474;2023-04-25T03:47:24;8.38;;;3.00;;
42260;SDS011;27926;48.062;7.474;2023-04-25T03:49:48;7.97;;;2.92;;
42260;SDS011;27926;48.062;7.474;2023-04-25T03:52:15;13.98;;;3.72;;
42260;SDS011;27926;48.062;7.474;2023-04-25T03:54:40;9.65;;;3.47;;
42260;SDS011;27926;48.062;7.474;2023-04-25T03:57:04;15.52;;;4.57;;
42260;SDS011;27926;48.062;7.474;2023-04-25T03:59:29;11.38;;;3.80;;
42260;SDS011;27926;48.062;7.474;2023-04-25T04:01:54;22.98;;;8.90;;
42260;SDS011;27926;48.062;7.474;2023-04-25T04:04:19;13.10;;;4.28;;
42260;SDS011;27926;48.062;7.474;2023-04-25T04:06:43;10.13;;;3.42;;
42260;SDS011;27926;48.062;7.474;2023-04-25T04:09:08;8.00;;;3.58;;
42260;SDS011;27926;48.062;7.474;2023-04-25T04:11:34;8.70;;;3.72;;
42260;SDS011;27926;48.062;7.474;2023-04-25T04:14:00;6.55;;;4.28;;
42260;SDS011;27926;48.062;7.474;2023-04-25T04:16:25;9.35;;;3.80;;
42260;SDS011;27926;48.062;7.474;2023-04-25T04:18:49;9.30;;;4.50;;
42260;SDS011;27926;48.062;7.474;2023-04-25T04:21:14;13.13;;;3.58;;
42260;SDS011;27926;48.062;7.474;2023-04-25T04:23:39;10.07;;;5.38;;
42260;SDS011;27926;48.062;7.474;2023-04-25T04:26:03;17.77;;;5.85;;
42260;SDS011;27926;48.062;7.474;2023-04-25T04:28:29;6.20;;;3.33;;
42260;SDS011;27926;48.062;7.474;2023-04-25T04:30:53;10.80;;;3.55;;
42260;SDS011;27926;48.062;7.474;2023-04-25T04:33:19;12.85;;;4.03;;
42260;SDS011;27926;48.062;7.474;2023-04-25T04:35:44;4.70;;;3.20;;
42260;SDS011;27926;48.062;7.474;2023-04-25T04:38:10;10.48;;;3.78;;
42260;SDS011;27926;48.062;7.474;2023-04-25T04:40:35;14.77;;;4.65;;
42260;SDS011;27926;48.062;7.474;2023-04-25T04:43:00;11.07;;;4.30;;
42260;SDS011;27926;48.062;7.474;2023-04-25T04:45:24;12.30;;;5.15;;
42260;SDS011;27926;48.062;7.474;2023-04-25T04:47:51;15.02;;;4.53;;
42260;SDS011;27926;48.062;7.474;2023-04-25T04:50:16;8.07;;;3.45;;
42260;SDS011;27926;48.062;7.474;2023-04-25T04:52:40;15.57;;;4.47;;
42260;SDS011;27926;48.062;7.474;2023-04-25T04:55:06;14.37;;;3.53;;
42260;SDS011;27926;48.062;7.474;2023-04-25T04:57:31;11.55;;;4.65;;
42260;SDS011;27926;48.062;7.474;2023-04-25T04:59:56;12.48;;;5.00;;
42260;SDS011;27926;48.062;7.474;2023-04-25T05:02:21;17.40;;;4.95;;
42260;SDS011;27926;48.062;7.474;2023-04-25T05:04:46;10.43;;;5.80;;
42260;SDS011;27926;48.062;7.474;2023-04-25T05:07:10;14.75;;;4.63;;
42260;SDS011;27926;48.062;7.474;2023-04-25T05:09:35;20.55;;;5.55;;
42260;SDS011;27926;48.062;7.474;2023-04-25T05:12:00;19.33;;;4.38;;
42260;SDS011;27926;48.062;7.474;2023-04-25T05:14:25;16.60;;;5.25;;
42260;SDS011;27926;48.062;7.474;2023-04-25T05:16:49;16.17;;;5.53;;
42260;SDS011;27926;48.062;7.474;2023-04-25T05:19:14;11.80;;;5.13;;
42260;SDS011;27926;48.062;7.474;2023-04-25T05:21:39;18.15;;;4.88;;
42260;SDS011;27926;48.062;7.474;2023-04-25T05:24:04;10.93;;;4.70;;
42260;SDS011;27926;48.062;7.474;2023-04-25T05:26:29;13.20;;;5.03;;
42260;SDS011;27926;48.062;7.474;2023-04-25T05:28:54;20.88;;;5.78;;
42260;SDS011;27926;48.062;7.474;2023-04-25T05:31:19;10.40;;;5.35;;
42260;SDS011;27926;48.062;7.474;2023-04-25T05:33:44;18.15;;;5.03;;
42260;SDS011;27926;48.062;7.474;2023-04-25T05:36:08;18.73;;;6.93;;
42260;SDS011;27926;48.062;7.474;2023-04-25T05:38:33;12.13;;;6.10;;
42260;SDS011;27926;48.062;7.474;2023-04-25T05:40:57;21.65;;;6.25;;
42260;SDS011;27926;48.062;7.474;2023-04-25T05:43:22;13.85;;;5.97;;
42260;SDS011;27926;48.062;7.474;2023-04-25T05:45:47;10.75;;;5.65;;
42260;SDS011;27926;48.062;7.474;2023-04-25T05:48:11;15.75;;;5.72;;
42260;SDS011;27926;48.062;7.474;2023-04-25T05:50:36;18.45;;;5.10;;
42260;SDS011;27926;48.062;7.474;2023-04-25T05:53:00;13.32;;;6.63;;
42260;SDS011;27926;48.062;7.474;2023-04-25T05:55:26;16.83;;;7.00;;
42260;SDS011;27926;48.062;7.474;2023-04-25T05:57:51;11.52;;;5.85;;
42260;SDS011;27926;48.062;7.474;2023-04-25T06:00:15;17.83;;;6.95;;
42260;SDS011;27926;48.062;7.474;2023-04-25T06:02:40;10.38;;;6.80;;
42260;SDS011;27926;48.062;7.474;2023-04-25T06:05:05;11.52;;;5.72;;
42260;SDS011;27926;48.062;7.474;2023-04-25T06:07:29;17.17;;;5.15;;
42260;SDS011;27926;48.062;7.474;2023-04-25T06:09:54;13.27;;;5.07;;
42260;SDS011;27926;48.062;7.474;2023-04-25T06:12:19;16.20;;;4.78;;
42260;SDS011;27926;48.062;7.474;2023-04-25T06:14:44;17.33;;;6.97;;
42260;SDS011;27926;48.062;7.474;2023-04-25T06:17:08;9.55;;;4.97;;
42260;SDS011;27926;48.062;7.474;2023-04-25T06:19:33;13.77;;;6.13;;
42260;SDS011;27926;48.062;7.474;2023-04-25T06:24:24;18.80;;;5.35;;
42260;SDS011;27926;48.062;7.474;2023-04-25T06:26:48;12.52;;;5.57;;
42260;SDS011;27926;48.062;7.474;2023-04-25T06:29:13;13.85;;;5.15;;
42260;SDS011;27926;48.062;7.474;2023-04-25T06:31:38;11.40;;;4.95;;
42260;SDS011;27926;48.062;7.474;2023-04-25T06:34:03;12.43;;;5.47;;
42260;SDS011;27926;48.062;7.474;2023-04-25T06:36:27;15.77;;;5.50;;
42260;SDS011;27926;48.062;7.474;2023-04-25T06:38:52;9.95;;;4.60;;
42260;SDS011;27926;48.062;7.474;2023-04-25T06:41:16;6.68;;;4.75;;
42260;SDS011;27926;48.062;7.474;2023-04-25T06:43:41;11.18;;;5.35;;
42260;SDS011;27926;48.062;7.474;2023-04-25T06:46:06;12.18;;;5.00;;
42260;SDS011;27926;48.062;7.474;2023-04-25T06:48:30;5.97;;;4.13;;
42260;SDS011;27926;48.062;7.474;2023-04-25T06:50:55;15.88;;;5.53;;
42260;SDS011;27926;48.062;7.474;2023-04-25T06:53:20;10.38;;;4.13;;
42260;SDS011;27926;48.062;7.474;2023-04-25T06:55:45;15.88;;;4.65;;
42260;SDS011;27926;48.062;7.474;2023-04-25T06:58:09;10.18;;;4.13;;
42260;SDS011;27926;48.062;7.474;2023-04-25T07:00:34;24.05;;;10.07;;
42260;SDS011;27926;48.062;7.474;2023-04-25T07:02:59;13.55;;;6.82;;
42260;SDS011;27926;48.062;7.474;2023-04-25T07:05:23;14.02;;;5.65;;
42260;SDS011;27926;48.062;7.474;2023-04-25T07:07:48;14.10;;;5.05;;
42260;SDS011;27926;48.062;7.474;2023-04-25T07:10:13;9.52;;;5.75;;
42260;SDS011;27926;48.062;7.474;2023-04-25T07:12:38;11.45;;;5.32;;
42260;SDS011;27926;48.062;7.474;2023-04-25T07:15:02;10.00;;;4.40;;
42260;SDS011;27926;48.062;7.474;2023-04-25T07:17:30;12.50;;;4.53;;
42260;SDS011;27926;48.062;7.474;2023-04-25T07:19:54;8.30;;;4.55;;
42260;SDS011;27926;48.062;7.474;2023-04-25T07:22:19;15.30;;;5.07;;
42260;SDS011;27926;48.062;7.474;2023-04-25T07:24:44;9.00;;;4.30;;
42260;SDS011;27926;48.062;7.474;2023-04-25T07:27:12;7.60;;;3.42;;
42260;SDS011;27926;48.062;7.474;2023-04-25T07:29:37;11.05;;;4.35;;
42260;SDS011;27926;48.062;7.474;2023-04-25T07:32:02;9.85;;;4.50;;
42260;SDS011;27926;48.062;7.474;2023-04-25T07:34:26;17.08;;;7.57;;
42260;SDS011;27926;48.062;7.474;2023-04-25T07:36:51;13.13;;;4.43;;
42260;SDS011;27926;48.062;7.474;2023-04-25T07:39:16;9.48;;;4.85;;
42260;SDS011;27926;48.062;7.474;2023-04-25T07:41:41;13.13;;;5.00;;
42260;SDS011;27926;48.062;7.474;2023-04-25T07:44:05;7.63;;;3.88;;
42260;SDS011;27926;48.062;7.474;2023-04-25T07:46:30;13.10;;;4.03;;
42260;SDS011;27926;48.062;7.474;2023-04-25T07:48:55;12.88;;;4.07;;
42260;SDS011;27926;48.062;7.474;2023-04-25T07:51:19;9.15;;;3.53;;
42260;SDS011;27926;48.062;7.474;2023-04-25T07:53:46;6.00;;;3.38;;
42260;SDS011;27926;48.062;7.474;2023-04-25T07:56:10;7.90;;;3.40;;
42260;SDS011;27926;48.062;7.474;2023-04-25T07:58:35;7.00;;;3.40;;
42260;SDS011;27926;48.062;7.474;2023-04-25T08:01:00;8.13;;;3.42;;
42260;SDS011;27926;48.062;7.474;2023-04-25T08:03:24;5.72;;;3.15;;
42260;SDS011;27926;48.062;7.474;2023-04-25T08:05:49;6.22;;;2.95;;
42260;SDS011;27926;48.062;7.474;2023-04-25T08:08:13;14.95;;;3.55;;
42260;SDS011;27926;48.062;7.474;2023-04-25T08:10:38;4.45;;;2.85;;
42260;SDS011;27926;48.062;7.474;2023-04-25T08:13:03;7.78;;;3.00;;
42260;SDS011;27926;48.062;7.474;2023-04-25T08:15:27;5.20;;;2.97;;
42260;SDS011;27926;48.062;7.474;2023-04-25T08:17:52;7.20;;;2.95;;
42260;SDS011;27926;48.062;7.474;2023-04-25T08:20:16;7.90;;;2.78;;
42260;SDS011;27926;48.062;7.474;2023-04-25T08:22:42;6.80;;;2.65;;
42260;SDS011;27926;48.062;7.474;2023-04-25T08:25:06;5.97;;;3.13;;
42260;SDS011;27926;48.062;7.474;2023-04-25T08:27:31;5.07;;;2.70;;
42260;SDS011;27926;48.062;7.474;2023-04-25T08:29:56;6.55;;;2.60;;
42260;SDS011;27926;48.062;7.474;2023-04-25T08:32:21;3.13;;;2.03;;
42260;SDS011;27926;48.062;7.474;2023-04-25T08:34:46;9.50;;;2.10;;
42260;SDS011;27926;48.062;7.474;2023-04-25T08:37:11;6.57;;;2.03;;
42260;SDS011;27926;48.062;7.474;2023-04-25T08:39:36;7.72;;;2.08;;
42260;SDS011;27926;48.062;7.474;2023-04-25T08:42:02;2.92;;;2.10;;
42260;SDS011;27926;48.062;7.474;2023-04-25T08:44:32;4.82;;;2.22;;
42260;SDS011;27926;48.062;7.474;2023-04-25T08:46:57;5.10;;;2.40;;
42260;SDS011;27926;48.062;7.474;2023-04-25T08:49:23;7.35;;;3.30;;
42260;SDS011;27926;48.062;7.474;2023-04-25T08:51:48;5.30;;;2.35;;
42260;SDS011;27926;48.062;7.474;2023-04-25T08:54:15;5.25;;;2.38;;
42260;SDS011;27926;48.062;7.474;2023-04-25T08:56:45;6.20;;;2.05;;
42260;SDS011;27926;48.062;7.474;2023-04-25T08:59:12;7.20;;;2.00;;
42260;SDS011;27926;48.062;7.474;2023-04-25T09:01:36;4.95;;;1.77;;
42260;SDS011;27926;48.062;7.474;2023-04-25T09:04:01;10.50;;;2.20;;
42260;SDS011;27926;48.062;7.474;2023-04-25T09:06:27;4.07;;;1.88;;
42260;SDS011;27926;48.062;7.474;2023-04-25T09:08:54;2.08;;;1.58;;
42260;SDS011;27926;48.062;7.474;2023-04-25T09:11:19;6.50;;;2.38;;
42260;SDS011;27926;48.062;7.474;2023-04-25T09:13:43;10.52;;;2.50;;
42260;SDS011;27926;48.062;7.474;2023-04-25T09:16:09;5.53;;;1.90;;
42260;SDS011;27926;48.062;7.474;2023-04-25T09:18:34;1.80;;;1.27;;
42260;SDS011;27926;48.062;7.474;2023-04-25T09:21:06;4.17;;;1.27;;
42260;SDS011;27926;48.062;7.474;2023-04-25T09:23:47;3.58;;;1.48;;
42260;SDS011;27926;48.062;7.474;2023-04-25T09:26:15;4.10;;;0.98;;
42260;SDS011;27926;48.062;7.474;2023-04-25T09:28:44;8.48;;;0.80;;
42260;SDS011;27926;48.062;7.474;2023-04-25T09:31:11;3.65;;;1.35;;
42260;SDS011;27926;48.062;7.474;2023-04-25T09:33:37;1.25;;;0.82;;
42260;SDS011;27926;48.062;7.474;2023-04-25T09:36:05;5.10;;;1.95;;
42260;SDS011;27926;48.062;7.474;2023-04-25T09:38:31;3.10;;;1.00;;
42260;SDS011;27926;48.062;7.474;2023-04-25T09:41:04;3.50;;;0.60;;
42260;SDS011;27926;48.062;7.474;2023-04-25T09:43:28;3.70;;;0.80;;
42260;SDS011;27926;48.062;7.474;2023-04-25T09:45:54;2.50;;;0.75;;
42260;SDS011;27926;48.062;7.474;2023-04-25T09:48:22;1.45;;;0.70;;
42260;SDS011;27926;48.062;7.474;2023-04-25T09:53:29;2.97;;;1.08;;
42260;SDS011;27926;48.062;7.474;2023-04-25T09:55:56;3.63;;;0.90;;
42260;SDS011;27926;48.062;7.474;2023-04-25T09:58:21;1.85;;;0.90;;
42260;SDS011;27926;48.062;7.474;2023-04-25T10:00:48;3.78;;;0.75;;
42260;SDS011;27926;48.062;7.474;2023-04-25T10:03:13;3.00;;;1.20;;
42260;SDS011;27926;48.062;7.474;2023-04-25T10:05:39;1.38;;;1.05;;
42260;SDS011;27926;48.062;7.474;2023-04-25T10:10:30;1.02;;;0.90;;
42260;SDS011;27926;48.062;7.474;2023-04-25T10:13:00;7.50;;;1.38;;
42260;SDS011;27926;48.062;7.474;2023-04-25T10:15:24;1.52;;;1.00;;
42260;SDS011;27926;48.062;7.474;2023-04-25T10:17:49;1.40;;;0.75;;
42260;SDS011;27926;48.062;7.474;2023-04-25T10:20:14;3.70;;;0.95;;
42260;SDS011;27926;48.062;7.474;2023-04-25T10:22:44;0.98;;;0.85;;
42260;SDS011;27926;48.062;7.474;2023-04-25T10:25:09;1.33;;;0.90;;
42260;SDS011;27926;48.062;7.474;2023-04-25T10:27:35;3.83;;;1.08;;
42260;SDS011;27926;48.062;7.474;2023-04-25T10:30:01;1.92;;;0.85;;
42260;SDS011;27926;48.062;7.474;2023-04-25T10:32:28;2.00;;;1.10;;
42260;SDS011;27926;48.062;7.474;2023-04-25T10:34:57;2.08;;;0.85;;
42260;SDS011;27926;48.062;7.474;2023-04-25T10:37:22;3.45;;;1.08;;
42260;SDS011;27926;48.062;7.474;2023-04-25T10:39:48;2.80;;;1.20;;
42260;SDS011;27926;48.062;7.474;2023-04-25T10:42:12;2.75;;;0.80;;
42260;SDS011;27926;48.062;7.474;2023-04-25T10:44:37;4.32;;;1.30;;
42260;SDS011;27926;48.062;7.474;2023-04-25T10:47:03;3.60;;;0.90;;
42260;SDS011;27926;48.062;7.474;2023-04-25T10:49:32;4.05;;;1.20;;
42260;SDS011;27926;48.062;7.474;2023-04-25T10:52:10;5.63;;;1.58;;
42260;SDS011;27926;48.062;7.474;2023-04-25T10:54:40;2.53;;;1.27;;
42260;SDS011;27926;48.062;7.474;2023-04-25T10:57:32;2.42;;;0.93;;
42260;SDS011;27926;48.062;7.474;2023-04-25T11:02:38;11.98;;;1.27;;
42260;SDS011;27926;48.062;7.474;2023-04-25T11:07:58;1.55;;;0.93;;
42260;SDS011;27926;48.062;7.474;2023-04-25T11:10:27;3.60;;;1.33;;
42260;SDS011;27926;48.062;7.474;2023-04-25T11:12:53;3.00;;;1.08;;
42260;SDS011;27926;48.062;7.474;2023-04-25T11:15:18;3.40;;;0.88;;
42260;SDS011;27926;48.062;7.474;2023-04-25T11:17:43;0.63;;;0.47;;
42260;SDS011;27926;48.062;7.474;2023-04-25T11:20:10;1.92;;;0.75;;
42260;SDS011;27926;48.062;7.474;2023-04-25T11:22:35;2.30;;;1.00;;
42260;SDS011;27926;48.062;7.474;2023-04-25T11:25:04;2.45;;;0.70;;
42260;SDS011;27926;48.062;7.474;2023-04-25T11:27:29;1.55;;;0.57;;
42260;SDS011;27926;48.062;7.474;2023-04-25T11:29:54;1.17;;;0.68;;
42260;SDS011;27926;48.062;7.474;2023-04-25T11:32:19;2.20;;;0.40;;
42260;SDS011;27926;48.062;7.474;2023-04-25T11:34:44;1.67;;;1.02;;
42260;SDS011;27926;48.062;7.474;2023-04-25T11:37:12;4.72;;;1.15;;
42260;SDS011;27926;48.062;7.474;2023-04-25T11:39:37;4.47;;;1.45;;
42260;SDS011;27926;48.062;7.474;2023-04-25T11:42:02;3.83;;;1.48;;
42260;SDS011;27926;48.062;7.474;2023-04-25T11:44:28;1.65;;;1.00;;
42260;SDS011;27926;48.062;7.474;2023-04-25T11:46:53;1.00;;;0.90;;
42260;SDS011;27926;48.062;7.474;2023-04-25T11:49:19;4.75;;;2.45;;
42260;SDS011;27926;48.062;7.474;2023-04-25T11:51:45;1.63;;;0.88;;
42260;SDS011;27926;48.062;7.474;2023-04-25T11:54:11;2.38;;;0.60;;
42260;SDS011;27926;48.062;7.474;2023-04-25T11:56:36;3.13;;;0.90;;
42260;SDS011;27926;48.062;7.474;2023-04-25T11:59:02;0.50;;;0.50;;
42260;SDS011;27926;48.062;7.474;2023-04-25T12:01:32;1.83;;;0.50;;
42260;SDS011;27926;48.062;7.474;2023-04-25T12:03:58;6.75;;;0.65;;
42260;SDS011;27926;48.062;7.474;2023-04-25T12:06:33;1.65;;;0.60;;
42260;SDS011;27926;48.062;7.474;2023-04-25T12:09:03;0.43;;;0.43;;
42260;SDS011;27926;48.062;7.474;2023-04-25T12:11:31;1.75;;;0.80;;
42260;SDS011;27926;48.062;7.474;2023-04-25T12:14:01;1.80;;;0.60;;
42260;SDS011;27926;48.062;7.474;2023-04-25T12:16:29;1.38;;;0.80;;
42260;SDS011;27926;48.062;7.474;2023-04-25T12:18:55;2.83;;;0.80;;
42260;SDS011;27926;48.062;7.474;2023-04-25T12:21:21;2.83;;;0.95;;
42260;SDS011;27926;48.062;7.474;2023-04-25T12:23:45;0.98;;;0.80;;
42260;SDS011;27926;48.062;7.474;2023-04-25T12:26:10;1.02;;;0.70;;
42260;SDS011;27926;48.062;7.474;2023-04-25T12:28:35;2.75;;;0.82;;
42260;SDS011;27926;48.062;7.474;2023-04-25T12:31:03;2.00;;;0.80;;
42260;SDS011;27926;48.062;7.474;2023-04-25T12:33:29;1.70;;;1.00;;
42260;SDS011;27926;48.062;7.474;2023-04-25T12:35:55;1.40;;;0.70;;
42260;SDS011;27926;48.062;7.474;2023-04-25T12:40:46;1.73;;;0.70;;
42260;SDS011;27926;48.062;7.474;2023-04-25T12:43:11;2.67;;;0.98;;
42260;SDS011;27926;48.062;7.474;2023-04-25T12:45:36;3.45;;;1.00;;
42260;SDS011;27926;48.062;7.474;2023-04-25T12:48:01;5.93;;;1.40;;
42260;SDS011;27926;48.062;7.474;2023-04-25T12:50:25;3.42;;;0.73;;
42260;SDS011;27926;48.062;7.474;2023-04-25T12:52:50;2.28;;;1.00;;
42260;SDS011;27926;48.062;7.474;2023-04-25T12:55:15;2.60;;;0.85;;
42260;SDS011;27926;48.062;7.474;2023-04-25T12:57:39;1.48;;;0.60;;
42260;SDS011;27926;48.062;7.474;2023-04-25T13:00:04;6.67;;;0.87;;
42260;SDS011;27926;48.062;7.474;2023-04-25T13:02:32;4.20;;;0.65;;
42260;SDS011;27926;48.062;7.474;2023-04-25T13:04:57;1.02;;;0.57;;
42260;SDS011;27926;48.062;7.474;2023-04-25T13:07:22;1.17;;;0.68;;
42260;SDS011;27926;48.062;7.474;2023-04-25T13:09:46;0.77;;;0.70;;
42260;SDS011;27926;48.062;7.474;2023-04-25T13:12:14;2.22;;;0.65;;
42260;SDS011;27926;48.062;7.474;2023-04-25T13:14:39;3.50;;;0.82;;
42260;SDS011;27926;48.062;7.474;2023-04-25T13:17:04;1.98;;;0.68;;
42260;SDS011;27926;48.062;7.474;2023-04-25T13:19:28;3.55;;;0.73;;
42260;SDS011;27926;48.062;7.474;2023-04-25T13:21:53;0.60;;;0.60;;
42260;SDS011;27926;48.062;7.474;2023-04-25T13:24:18;0.75;;;0.40;;
42260;SDS011;27926;48.062;7.474;2023-04-25T13:26:42;0.47;;;0.43;;
42260;SDS011;27926;48.062;7.474;2023-04-25T13:29:07;1.35;;;0.85;;
42260;SDS011;27926;48.062;7.474;2023-04-25T13:31:32;2.40;;;0.68;;
42260;SDS011;27926;48.062;7.474;2023-04-25T13:33:56;2.03;;;0.70;;
42260;SDS011;27926;48.062;7.474;2023-04-25T13:36:21;0.75;;;0.50;;
42260;SDS011;27926;48.062;7.474;2023-04-25T13:38:45;1.70;;;0.70;;
42260;SDS011;27926;48.062;7.474;2023-04-25T13:41:11;1.98;;;1.08;;
42260;SDS011;27926;48.062;7.474;2023-04-25T13:43:41;1.35;;;0.80;;
42260;SDS011;27926;48.062;7.474;2023-04-25T13:46:06;5.03;;;1.00;;
42260;SDS011;27926;48.062;7.474;2023-04-25T13:48:30;1.63;;;1.02;;
42260;SDS011;27926;48.062;7.474;2023-04-25T13:50:55;3.63;;;1.35;;
42260;SDS011;27926;48.062;7.474;2023-04-25T13:53:19;7.47;;;1.55;;
42260;SDS011;27926;48.062;7.474;2023-04-25T13:55:45;3.23;;;1.17;;
42260;SDS011;27926;48.062;7.474;2023-04-25T13:58:10;2.45;;;0.80;;
42260;SDS011;27926;48.062;7.474;2023-04-25T14:00:35;4.53;;;1.20;;
42260;SDS011;27926;48.062;7.474;2023-04-25T14:03:02;2.88;;;1.38;;
42260;SDS011;27926;48.062;7.474;2023-04-25T14:05:28;6.63;;;1.20;;
42260;SDS011;27926;48.062;7.474;2023-04-25T14:07:53;10.05;;;1.40;;
42260;SDS011;27926;48.062;7.474;2023-04-25T14:10:19;2.30;;;1.27;;
42260;SDS011;27926;48.062;7.474;2023-04-25T14:12:43;4.97;;;1.15;;
42260;SDS011;27926;48.062;7.474;2023-04-25T14:15:08;0.98;;;0.90;;
42260;SDS011;27926;48.062;7.474;2023-04-25T14:17:33;3.47;;;1.40;;
42260;SDS011;27926;48.062;7.474;2023-04-25T14:19:58;4.03;;;1.50;;
42260;SDS011;27926;48.062;7.474;2023-04-25T14:22:22;0.80;;;0.80;;
42260;SDS011;27926;48.062;7.474;2023-04-25T14:24:47;2.92;;;0.77;;
42260;SDS011;27926;48.062;7.474;2023-04-25T14:27:11;1.20;;;0.85;;
42260;SDS011;27926;48.062;7.474;2023-04-25T14:29:36;3.33;;;1.25;;
42260;SDS011;27926;48.062;7.474;2023-04-25T14:32:01;6.95;;;1.50;;
42260;SDS011;27926;48.062;7.474;2023-04-25T14:34:26;9.98;;;1.42;;
42260;SDS011;27926;48.062;7.474;2023-04-25T14:36:51;4.28;;;1.98;;
42260;SDS011;27926;48.062;7.474;2023-04-25T14:39:16;1.60;;;1.42;;
42260;SDS011;27926;48.062;7.474;2023-04-25T14:41:41;4.32;;;2.03;;
42260;SDS011;27926;48.062;7.474;2023-04-25T14:44:05;4.32;;;1.67;;
42260;SDS011;27926;48.062;7.474;2023-04-25T14:46:30;3.17;;;1.70;;